SOQ weather

Dominique Edward Osok Airport
Sorong-Papua Island, West Papua, Indonesia

Public forecast

Using degrees Celsius for public forecast. Weather courtesy of forecast.io.

Closest aviation weather report (METAR) to Dominique Edward Osok Airport

Closest report is Frans Kaisiepo Airport, 290.0 nm (537.0 km) E. Retrieved 2019/10/17 11:00 UTC (45 minutes ago):

WABB 171100Z 01003KT 9999 SCT018 26/25 Q1010 NOSIG

Closest aviation forecast (TAF) to Dominique Edward Osok Airport

Forecast is more than 12 hours old.

Closest forecast is Rendani Airport, 165.8 nm (307.1 km) E. Retrieved 2013/03/11 12:00 UTC (7 years ago):

TAF WASR 111100Z 1112/1212 00000KT 5000 HZ SCT015 TEMPO 1112/1118 4000 RA FEW013CB BECMG 1200/1202 30012KT 9999 TEMPO 1206/1210 6000 RA FEW013CB